« Back
NWS Peachtree City, Ga » Text Product » ATL Terminal Aerodrome Forecast


Printer-friendly Version
Current Version              Previous Versions:   1  2  3  4  5  6  7  8  9  

Terminal Aerodrome Forecast

614
FTUS42 KFFC 241400 AAA
TAFATL
TAF AMD
KATL 241401Z 2414/2518 26007KT P6SM SCT100
     FM241700 27009G18KT P6SM VCSH BKN050
      TEMPO 2418/2422 5SM -TSRA BR BKN035CB
     FM242200 30007KT P6SM VCSH SCT050 BKN100
     FM250200 29004KT P6SM SCT120 BKN250
     FM251500 28006KT P6SM SCT040=

USA.gov is the U.S. government's official web portal to all federal, state and local government web resources and services.